^^
Grace C. Lehan Memorial Weather Station Historical Data
Daily Summary for July 13, 2021 Units:  Metric    English   Both
Daily Weekly Monthly Yearly
  High: Low: Average:
Temperature: 13.4 °C 2.2 °C 5.8 °C
Dew Point: -0.8 °C -4.2 °C -2.9 °C
Humidity: 64% 32.1% 55%
Wind Speed: 4.8km/h 0km/h 0.8km/h
Wind Gust: 20.9km/h - -
Wind- - WSW
Pressure: 1022.6 hPa 1018.5 hPa -
Precipitation: 0 mm    
 
 
Tabular Data for July 13, 2021
Time Temperature Dew Point Pressure Wind Wind Speed Wind Gust Humidity Rainfall Rate (Hourly) solar
00:04 2.6 °C -4 °C 1020.5 hPa Calm   1.6 km/h 62% 0 mm 0 W/m2
00:09 2.6 °C -4 °C 1020.2 hPa Calm     62% 0 mm 0 W/m2
00:14 2.5 °C -4 °C 1020.2 hPa Calm     62% 0 mm 0 W/m2
00:19 2.5 °C -4.1 °C 1020.2 hPa WSW 0.2 km/h 1.6 km/h 62% 0 mm 0 W/m2
00:24 2.6 °C -4 °C 1020.2 hPa Calm   1.6 km/h 62% 0 mm 0 W/m2
00:29 2.5 °C -4.2 °C 1020.2 hPa Calm   1.6 km/h 61.4% 0 mm 0 W/m2
00:34 2.6 °C -4 °C 1020.2 hPa WSW 0.2 km/h 1.6 km/h 62% 0 mm 0 W/m2
00:39 2.6 °C -4 °C 1019.9 hPa WSW 0.6 km/h 3.2 km/h 62% 0 mm 0 W/m2
00:44 2.6 °C -3.9 °C 1020.2 hPa WSW 1.1 km/h 3.2 km/h 62% 0 mm 0 W/m2
00:49 2.6 °C -3.9 °C 1020.2 hPa WSW 0.2 km/h 3.2 km/h 62% 0 mm 0 W/m2
00:54 2.7 °C -3.9 °C 1020.2 hPa WSW 0.5 km/h 3.2 km/h 62% 0 mm 0 W/m2
00:59 2.7 °C -3.8 °C 1020.2 hPa WSW 0.2 km/h 3.2 km/h 62% 0 mm 0 W/m2
01:04 2.7 °C -3.9 °C 1019.9 hPa WSW 0.2 km/h 3.2 km/h 62% 0 mm 0 W/m2
01:09 2.6 °C -3.9 °C 1019.9 hPa Calm   1.6 km/h 62% 0 mm 0 W/m2
01:14 2.6 °C -3.8 °C 1019.9 hPa WSW 0.3 km/h 3.2 km/h 62.7% 0 mm 0 W/m2
01:19 2.5 °C -3.8 °C 1019.9 hPa WSW 0.2 km/h 3.2 km/h 63% 0 mm 0 W/m2
01:24 2.4 °C -3.9 °C 1019.9 hPa WSW 0.8 km/h 3.2 km/h 63% 0 mm 0 W/m2
01:29 2.3 °C -3.9 °C 1019.9 hPa WSW 0.5 km/h 3.2 km/h 63% 0 mm 0 W/m2
01:34 2.3 °C -3.8 °C 1020.2 hPa Calm   3.2 km/h 64% 0 mm 0 W/m2
01:39 2.3 °C -3.8 °C 1020.2 hPa Calm   1.6 km/h 64% 0 mm 0 W/m2
01:44 2.3 °C -3.8 °C 1020.2 hPa Calm   1.6 km/h 64% 0 mm 0 W/m2
01:49 2.3 °C -3.8 °C 1020.5 hPa Calm   1.6 km/h 64% 0 mm 0 W/m2
01:54 2.3 °C -3.8 °C 1020.5 hPa Calm   1.6 km/h 64% 0 mm 0 W/m2
01:59 2.3 °C -3.8 °C 1020.5 hPa Calm   1.6 km/h 64% 0 mm 0 W/m2
02:04 2.4 °C -3.7 °C 1020.5 hPa Calm   1.6 km/h 64% 0 mm 0 W/m2
02:09 2.4 °C -3.8 °C 1020.5 hPa WSW 0.2 km/h 1.6 km/h 63.1% 0 mm 0 W/m2
02:14 2.5 °C -3.8 °C 1020.5 hPa Calm   1.6 km/h 63.2% 0 mm 0 W/m2
02:19 2.6 °C -3.8 °C 1020.2 hPa Calm   1.6 km/h 63% 0 mm 0 W/m2
02:24 2.6 °C -3.8 °C 1020.2 hPa WSW 0.2 km/h 6.4 km/h 63% 0 mm 0 W/m2
02:29 2.7 °C -3.9 °C 1020.5 hPa WSW 0.6 km/h 6.4 km/h 62.1% 0 mm 0 W/m2
02:34 2.7 °C -3.8 °C 1020.5 hPa WSW 0.6 km/h 6.4 km/h 62% 0 mm 0 W/m2
02:39 2.7 °C -3.7 °C 1020.5 hPa WSW 0.2 km/h 3.2 km/h 62.4% 0 mm 0 W/m2
02:44 2.7 °C -3.7 °C 1020.5 hPa Calm   3.2 km/h 63% 0 mm 0 W/m2
02:49 2.6 °C -3.8 °C 1020.5 hPa WSW 0.5 km/h 4.8 km/h 62.8% 0 mm 0 W/m2
02:54 2.6 °C -3.9 °C 1020.5 hPa WSW 0.5 km/h 4.8 km/h 62% 0 mm 0 W/m2
02:59 2.7 °C -3.8 °C 1020.5 hPa WSW 0.2 km/h 4.8 km/h 62.2% 0 mm 0 W/m2
03:04 2.7 °C -3.9 °C 1020.5 hPa Calm   4.8 km/h 62% 0 mm 0 W/m2
03:09 2.6 °C -3.9 °C 1020.9 hPa Calm   1.6 km/h 62% 0 mm 0 W/m2
03:14 2.6 °C -3.9 °C 1020.9 hPa WSW 0.2 km/h 3.2 km/h 62.1% 0 mm 0 W/m2
03:19 2.6 °C -3.9 °C 1021.2 hPa Calm   3.2 km/h 62% 0 mm 0 W/m2
03:24 2.6 °C -4 °C 1021.2 hPa Calm   3.2 km/h 62% 0 mm 0 W/m2
03:29 2.6 °C -4 °C 1021.2 hPa Calm   3.2 km/h 62% 0 mm 0 W/m2
03:34 2.5 °C -4 °C 1021.2 hPa Calm   3.2 km/h 62.1% 0 mm 0 W/m2
03:39 2.4 °C -3.9 °C 1021.6 hPa Calm     63% 0 mm 0 W/m2
03:44 2.4 °C -3.9 °C 1021.6 hPa Calm     63% 0 mm 0 W/m2
03:49 2.3 °C -3.9 °C 1021.6 hPa Calm     63.4% 0 mm 0 W/m2
03:54 2.3 °C -3.8 °C 1021.2 hPa Calm     64% 0 mm 0 W/m2
03:59 2.2 °C -3.9 °C 1021.2 hPa Calm     64% 0 mm 0 W/m2
04:00 2.2 °C -3.9 °C 1021.2 hPa Calm     64% 0 mm 0 W/m2
04:09 2.3 °C -4 °C 1021.2 hPa Calm     63% 0 mm 0 W/m2
04:14 2.4 °C -3.9 °C 1021.2 hPa Calm     63% 0 mm 0 W/m2
04:19 2.6 °C -3.9 °C 1021.2 hPa WSW 0.2 km/h 3.2 km/h 62% 0 mm 0 W/m2
04:24 2.7 °C -3.9 °C 1020.9 hPa WSW 0.2 km/h 3.2 km/h 61.3% 0 mm 0 W/m2
04:29 2.9 °C -3.9 °C 1020.9 hPa Calm   3.2 km/h 61% 0 mm 0 W/m2
04:34 3.1 °C -3.8 °C 1020.9 hPa WSW 0.2 km/h 3.2 km/h 60.9% 0 mm 0 W/m2
04:39 3.2 °C -3.8 °C 1020.5 hPa Calm   1.6 km/h 60% 0 mm 0 W/m2
04:44 3.3 °C -3.7 °C 1020.9 hPa WSW 0.2 km/h 3.2 km/h 60.4% 0 mm 0 W/m2
04:49 3.3 °C -3.7 °C 1020.9 hPa WSW 0.2 km/h 3.2 km/h 60% 0 mm 0 W/m2
04:54 3.3 °C -3.7 °C 1020.9 hPa Calm   3.2 km/h 59.9% 0 mm 0 W/m2
04:59 3.4 °C -3.7 °C 1021.2 hPa WSW 0.3 km/h 3.2 km/h 59.7% 0 mm 0 W/m2
05:04 3.4 °C -3.7 °C 1020.9 hPa Calm   3.2 km/h 59.4% 0 mm 0 W/m2
05:09 3.4 °C -3.6 °C 1020.9 hPa Calm     60% 0 mm 0 W/m2
05:14 3.4 °C -3.8 °C 1021.2 hPa Calm     59.2% 0 mm 0 W/m2
05:19 3.5 °C -3.7 °C 1021.2 hPa Calm   1.6 km/h 59% 0 mm 0 W/m2
05:24 3.6 °C -3.5 °C 1021.6 hPa WSW 0.2 km/h 1.6 km/h 59.8% 0 mm 0 W/m2
05:29 3.6 °C -3.5 °C 1021.6 hPa Calm   1.6 km/h 60% 0 mm 0 W/m2
05:34 3.5 °C -3.5 °C 1021.6 hPa Calm   1.6 km/h 60% 0 mm 0 W/m2
05:39 3.5 °C -3.6 °C 1021.2 hPa WSW 0.3 km/h 1.6 km/h 59.8% 0 mm 0 W/m2
05:44 3.6 °C -3.6 °C 1021.6 hPa Calm   1.6 km/h 59.3% 0 mm 0 W/m2
05:49 3.6 °C -3.4 °C 1021.6 hPa Calm   1.6 km/h 60% 0 mm 0 W/m2
05:54 3.6 °C -3.5 °C 1021.6 hPa Calm   1.6 km/h 60% 0 mm 0 W/m2
05:59 3.5 °C -3.5 °C 1021.6 hPa Calm   1.6 km/h 60.2% 0 mm 0 W/m2
06:04 3.5 °C -3.3 °C 1021.6 hPa WSW 0.3 km/h 3.2 km/h 60.9% 0 mm 0 W/m2
06:09 3.6 °C -3.6 °C 1021.6 hPa WSW 0.8 km/h 3.2 km/h 59.6% 0 mm 0 W/m2
06:14 3.7 °C -3.6 °C 1021.6 hPa WSW 0.2 km/h 3.2 km/h 58.8% 0 mm 0 W/m2
06:19 3.9 °C -3.4 °C 1021.9 hPa Calm   3.2 km/h 58.9% 0 mm 0 W/m2
06:24 3.9 °C -3.3 °C 1021.9 hPa WSW 0.2 km/h 3.2 km/h 59% 0 mm 0 W/m2
06:29 3.9 °C -3.4 °C 1021.9 hPa Calm   3.2 km/h 59% 0 mm 0 W/m2
06:34 3.8 °C -3.4 °C 1021.6 hPa WSW 0.5 km/h 3.2 km/h 59.3% 0 mm 0 W/m2
06:39 3.8 °C -3.3 °C 1021.9 hPa Calm   3.2 km/h 59.7% 0 mm 0 W/m2
06:44 3.7 °C -3.4 °C 1021.9 hPa Calm   3.2 km/h 59.5% 0 mm 0 W/m2
06:49 3.7 °C -3.4 °C 1021.9 hPa Calm   3.2 km/h 60% 0 mm 0 W/m2
06:54 3.6 °C -3.4 °C 1021.9 hPa Calm   3.2 km/h 60% 0 mm 0 W/m2
06:59 3.6 °C -3.6 °C 1021.9 hPa Calm   3.2 km/h 59.7% 0 mm 0 W/m2
07:04 3.6 °C -3.5 °C 1021.9 hPa Calm   3.2 km/h 59.7% 0 mm 0 W/m2
07:09 3.7 °C -3.4 °C 1021.9 hPa Calm     60% 0 mm 0 W/m2
07:14 3.7 °C -3.3 °C 1021.9 hPa WSW 0.6 km/h 3.2 km/h 60% 0 mm 0 W/m2
07:19 3.8 °C -3.4 °C 1021.9 hPa Calm   3.2 km/h 59.1% 0 mm 0 W/m2
07:24 3.8 °C -3.4 °C 1021.9 hPa WSW 0.2 km/h 3.2 km/h 59% 0 mm 0 W/m2
07:29 3.9 °C -3.4 °C 1021.9 hPa Calm   3.2 km/h 59% 0 mm 5 W/m2
07:34 3.9 °C -3.3 °C 1021.9 hPa Calm   3.2 km/h 59.3% 0 mm 7 W/m2
07:39 4 °C -3.3 °C 1021.9 hPa Calm     59% 0 mm 14 W/m2
07:44 4 °C -3.3 °C 1021.9 hPa Calm     59% 0 mm 19 W/m2
07:49 3.9 °C -3.3 °C 1021.9 hPa Calm     59% 0 mm 25 W/m2
07:54 4 °C -3.3 °C 1021.6 hPa Calm     59% 0 mm 28 W/m2
07:59 4.1 °C -3.2 °C 1021.9 hPa Calm     59% 0 mm 25 W/m2
08:00 4.1 °C -3.2 °C 1021.9 hPa Calm     59% 0 mm 25 W/m2
08:09 4.1 °C -3.2 °C 1021.9 hPa Calm     59% 0 mm 28 W/m2
08:14 4.2 °C -3 °C 1021.9 hPa Calm     59.7% 0 mm 25 W/m2
08:19 4.2 °C -2.9 °C 1021.9 hPa Calm     59.7% 0 mm 37 W/m2
08:24 4.3 °C -2.7 °C 1021.9 hPa Calm     60.2% 0 mm 42 W/m2
08:29 4.3 °C -2.7 °C 1021.9 hPa Calm     60% 0 mm 33 W/m2
08:34 4.4 °C -2.8 °C 1021.9 hPa Calm   1.6 km/h 59.5% 0 mm 33 W/m2
08:39 4.4 °C -3.1 °C 1021.9 hPa Calm   1.6 km/h 58% 0 mm 33 W/m2
08:44 4.6 °C -3 °C 1021.9 hPa Calm   1.6 km/h 58% 0 mm 51 W/m2
08:49 4.7 °C -2.7 °C 1021.9 hPa SW 1 km/h 4.8 km/h 58.7% 0 mm 54 W/m2
08:54 4.8 °C -2.7 °C 1021.9 hPa SW 0.6 km/h 4.8 km/h 58.5% 0 mm 54 W/m2
08:59 4.9 °C -2.5 °C 1021.9 hPa WSW 0.3 km/h 4.8 km/h 58.6% 0 mm 53 W/m2
09:04 5.1 °C -2.7 °C 1021.9 hPa WSW 0.2 km/h 4.8 km/h 57% 0 mm 53 W/m2
09:09 5.3 °C -2.6 °C 1022.2 hPa WSW 0.5 km/h 3.2 km/h 57% 0 mm 54 W/m2
09:14 5.4 °C -2.4 °C 1021.9 hPa WSW 0.8 km/h 8 km/h 57% 0 mm 63 W/m2
09:19 5.6 °C -2.5 °C 1022.2 hPa WSW 1.4 km/h 8 km/h 56.1% 0 mm 60 W/m2
09:24 5.7 °C -2.6 °C 1022.2 hPa WSW 1 km/h 8 km/h 55.3% 0 mm 62 W/m2
09:29 5.8 °C -2.4 °C 1022.2 hPa WSW 1.1 km/h 8 km/h 55.2% 0 mm 60 W/m2
09:34 5.9 °C -2.4 °C 1022.2 hPa WSW 0.6 km/h 8 km/h 55.1% 0 mm 74 W/m2
09:39 6.1 °C -2.4 °C 1022.2 hPa SW 2.4 km/h 8 km/h 54.7% 0 mm 84 W/m2
09:44 6.2 °C -2.6 °C 1022.2 hPa SW 3.7 km/h 9.7 km/h 53.5% 0 mm 72 W/m2
09:49 6.3 °C -2.3 °C 1022.6 hPa WSW 2.9 km/h 11.3 km/h 53.8% 0 mm 69 W/m2
09:54 6.4 °C -2.2 °C 1022.6 hPa WSW 3.4 km/h 16.1 km/h 53.9% 0 mm 98 W/m2
09:59 6.6 °C -2.1 °C 1022.6 hPa SW 3.4 km/h 16.1 km/h 54% 0 mm 167 W/m2
10:04 6.7 °C -1.9 °C 1022.2 hPa SW 3.1 km/h 19.3 km/h 54% 0 mm 327 W/m2
10:09 7.1 °C -1.7 °C 1022.2 hPa SW 4.8 km/h 20.9 km/h 53.8% 0 mm 373 W/m2
10:14 7.4 °C -1.8 °C 1022.2 hPa WSW 0.8 km/h 20.9 km/h 51.9% 0 mm 155 W/m2
10:19 7.6 °C -1.4 °C 1021.9 hPa WSW 2.4 km/h 20.9 km/h 52.9% 0 mm 206 W/m2
10:24 7.8 °C -1.5 °C 1021.9 hPa WSW 1.3 km/h 20.9 km/h 51.7% 0 mm 206 W/m2
10:29 8 °C -1.7 °C 1021.9 hPa WSW 3.1 km/h 20.9 km/h 50.4% 0 mm 218 W/m2
10:34 8.1 °C -1.6 °C 1021.9 hPa WSW 2.4 km/h 20.9 km/h 50.3% 0 mm 176 W/m2
10:39 8.3 °C -1.6 °C 1021.9 hPa WSW 1.8 km/h 14.5 km/h 49.9% 0 mm 204 W/m2
10:44 8.5 °C -1.6 °C 1021.6 hPa SW 1.4 km/h 14.5 km/h 49% 0 mm 216 W/m2
10:49 8.7 °C -1.3 °C 1021.6 hPa SW 2.1 km/h 14.5 km/h 49.3% 0 mm 230 W/m2
10:54 8.9 °C -1.6 °C 1021.2 hPa SW 1 km/h 14.5 km/h 47.9% 0 mm 227 W/m2
10:59 9.2 °C -1.1 °C 1020.9 hPa SW 1.3 km/h 14.5 km/h 48.7% 0 mm 241 W/m2
11:04 9.4 °C -1.5 °C 1021.2 hPa SW 1.8 km/h 14.5 km/h 46.3% 0 mm 248 W/m2
11:09 9.7 °C -1.4 °C 1021.2 hPa SW 0.8 km/h 6.4 km/h 46% 0 mm 192 W/m2
11:14 9.8 °C -1.6 °C 1021.2 hPa SW 1.3 km/h 8 km/h 45.1% 0 mm 167 W/m2
11:19 9.8 °C -1.7 °C 1020.9 hPa WSW 0.6 km/h 8 km/h 44.5% 0 mm 171 W/m2
11:24 9.8 °C -0.9 °C 1020.9 hPa SW 1.9 km/h 8 km/h 46.9% 0 mm 171 W/m2
11:29 9.8 °C -1.8 °C 1020.5 hPa SW 0.6 km/h 8 km/h 43.9% 0 mm 169 W/m2
11:34 9.9 °C -1.8 °C 1020.5 hPa SW 0.3 km/h 8 km/h 44.1% 0 mm 162 W/m2
11:39 9.9 °C -1.7 °C 1020.5 hPa WSW 1.1 km/h 8 km/h 44.4% 0 mm 149 W/m2
11:44 9.9 °C -1.7 °C 1020.5 hPa SW 0.6 km/h 8 km/h 44% 0 mm 149 W/m2
11:49 10 °C -1.5 °C 1020.5 hPa SW 0.3 km/h 8 km/h 44.6% 0 mm 146 W/m2
11:54 10 °C -1.7 °C 1020.5 hPa SW 0.8 km/h 8 km/h 43.9% 0 mm 132 W/m2
11:59 10 °C -1.8 °C 1020.2 hPa SW 3.1 km/h 11.3 km/h 43.7% 0 mm 167 W/m2
12:00 10 °C -2 °C 1020.2 hPa SW 1.6 km/h 11.3 km/h 43% 0 mm 153 W/m2
12:09 10.2 °C -1.8 °C 1020.2 hPa SW 2.9 km/h 9.7 km/h 43.2% 0 mm 497 W/m2
12:14 10.5 °C -1.4 °C 1020.2 hPa SW 1.9 km/h 9.7 km/h 43.5% 0 mm 468 W/m2
12:19 10.8 °C -1.5 °C 1020.2 hPa SW 3.1 km/h 14.5 km/h 42.1% 0 mm 246 W/m2
12:24 11.1 °C -1.3 °C 1019.9 hPa SW 1.8 km/h 14.5 km/h 42.2% 0 mm 53 W/m2
12:29 11.2 °C -1.2 °C 1020.2 hPa SW 2.1 km/h 14.5 km/h 42.2% 0 mm 100 W/m2
12:34 11.3 °C -1.4 °C 1020.2 hPa SW 0.8 km/h 14.5 km/h 41.1% 0 mm 369 W/m2
12:39 11.7 °C -1.1 °C 1019.9 hPa WSW 1.8 km/h 16.1 km/h 41% 0 mm 459 W/m2
12:44 12.1 °C -1.4 °C 1019.9 hPa SW 2.4 km/h 16.1 km/h 39.2% 0 mm 432 W/m2
12:49 12.4 °C -1.2 °C 1019.5 hPa SW 3.1 km/h 16.1 km/h 38.7% 0 mm 265 W/m2
12:54 12.7 °C -1.1 °C 1019.5 hPa WSW 1.6 km/h 16.1 km/h 38.3% 0 mm 91 W/m2
12:59 12.8 °C -1.4 °C 1019.5 hPa WSW 1.8 km/h 16.1 km/h 37.3% 0 mm 121 W/m2
13:04 12.8 °C -1.3 °C 1019.5 hPa WSW 1.6 km/h 16.1 km/h 37.3% 0 mm 410 W/m2
13:09 13 °C -1.3 °C 1019.2 hPa WSW 0.6 km/h 6.4 km/h 37% 0 mm 186 W/m2
13:14 13.2 °C -1.6 °C 1019.2 hPa WSW 0.6 km/h 6.4 km/h 35.8% 0 mm 211 W/m2
13:19 13.4 °C -1.4 °C 1019.2 hPa SW 2.6 km/h 11.3 km/h 35.8% 0 mm 278 W/m2
13:24 13.4 °C -0.8 °C 1019.2 hPa WSW 0.5 km/h 11.3 km/h 37.4% 0 mm 338 W/m2
13:29 13.4 °C -1.1 °C 1019.2 hPa WSW 2.6 km/h 11.3 km/h 36.6% 0 mm 338 W/m2
13:34 13.4 °C -1.8 °C 1019.2 hPa SW 3.1 km/h 11.3 km/h 35% 0 mm 221 W/m2
13:39 13.2 °C -1.8 °C 1019.2 hPa SW 2.7 km/h 14.5 km/h 35.3% 0 mm 216 W/m2
13:44 13 °C -1.7 °C 1019.2 hPa SW 2.1 km/h 14.5 km/h 36.2% 0 mm 123 W/m2
13:49 12.9 °C -1.8 °C 1019.2 hPa WSW 1.6 km/h 14.5 km/h 36.1% 0 mm 181 W/m2
13:54 12.8 °C -1.8 °C 1019.2 hPa WSW 2.6 km/h 14.5 km/h 36.2% 0 mm 227 W/m2
13:59 12.9 °C -2.1 °C 1018.8 hPa SW 2.7 km/h 14.5 km/h 35.4% 0 mm 297 W/m2
14:04 13 °C -2.6 °C 1018.8 hPa SW 3.1 km/h 14.5 km/h 33.8% 0 mm 297 W/m2
14:09 13.2 °C -2.4 °C 1018.8 hPa WSW 2.9 km/h 11.3 km/h 33.6% 0 mm 185 W/m2
14:14 13.3 °C -2.8 °C 1018.8 hPa SW 4 km/h 14.5 km/h 32.7% 0 mm 153 W/m2
14:19 13.2 °C -3.1 °C 1018.8 hPa WSW 3.1 km/h 17.7 km/h 32.1% 0 mm 113 W/m2
14:24 13.1 °C -2.9 °C 1018.8 hPa WSW 3.5 km/h 17.7 km/h 32.9% 0 mm 241 W/m2
14:29 13.1 °C -3 °C 1018.8 hPa WSW 3.4 km/h 17.7 km/h 32.6% 0 mm 209 W/m2
14:34 13.1 °C -2.9 °C 1018.5 hPa WSW 1.1 km/h 17.7 km/h 33% 0 mm 44 W/m2
14:38 12.9 °C -2.6 °C 1018.8 hPa WSW 0.5 km/h 9.7 km/h 33.9% 0 mm 26 W/m2
Hartford County Weather
Compliments of Weather Underground - 4 mb